Latest Weather Observations for Centre Island

IDD60801

Issued at 9:31 pm CST Sunday 25 January 2015 (issued every 30 minutes, with the page automatically refreshed every 10 minutes)

About weather observations | Map of weather stations | Latest weather observations for NT | Other Formats
Station Details ID: 014703 Name: CENTRE ISLAND Lat: -15.74 Lon: 136.82 Height: 12.2 m
Data from the previous 72 hours. | See also: Recent months at Centre Island
Date/Time
CST
Temp
°C
App
Temp
°C
Dew
Point
Rel
Hum
%
Delta-T
°C
Wind Press
QNH
hPa
Press
MSL
hPa
Rain
since 9 am
mm
Dir
 
Spd
km/h
Gust
km/h
Spd
kts
Gust
kts
25/09:30pm 26.6 27.9 22.7 79 2.6 SW 20 26 11 14 1008.1 1008.0 0.8
25/09:00pm 26.3 25.6 23.2 83 2.1 SSW 32 39 17 21 1007.9 1007.8 0.8
25/08:30pm 25.4 23.9 23.5 89 1.3 S 37 44 20 24 1008.1 1008.0 0.8
25/08:00pm 25.7 23.9 24.3 92 1.0 S 41 48 22 26 1007.7 1007.6 0.8
25/07:30pm 29.0 28.2 24.6 77 3.1 SSW 37 61 20 33 1006.9 1006.8 0.0
25/07:26pm 29.7 31.4 24.1 72 3.9 W 22 54 12 29 1006.6 1006.5 0.0
25/07:25pm 30.0 32.4 24.2 71 4.0 W 19 52 10 28 1006.5 1006.4 0.0
25/07:24pm 30.4 33.6 25.0 73 3.8 WNW 17 41 9 22 1006.5 1006.4 0.0
25/07:00pm 30.7 34.6 25.5 74 3.7 WNW 15 17 8 9 1006.0 1005.9 0.0
25/06:30pm 31.2 35.9 25.5 71 4.0 NW 11 13 6 7 1005.4 1005.3 0.0
25/06:00pm 32.2 36.4 25.3 67 4.9 NNW 13 17 7 9 1004.6 1004.5 0.0
25/05:30pm 32.8 36.6 25.3 64 5.3 NNW 15 24 8 13 1004.0 1003.9 0.0
25/05:00pm 33.0 36.4 25.3 64 5.5 NNW 17 26 9 14 1003.8 1003.7 0.0
25/04:30pm 33.3 36.3 25.3 63 5.7 NNW 19 26 10 14 1003.9 1003.8 0.0
25/04:00pm 34.5 37.7 25.6 60 6.4 NNW 19 26 10 14 1004.0 1003.9 0.0
25/03:30pm 33.4 35.6 24.0 58 6.6 N 19 26 10 14 1004.3 1004.2 0.0
25/03:00pm 35.0 37.6 24.9 55 7.2 N 20 30 11 16 1005.0 1004.9 0.0
25/02:30pm 35.5 39.4 25.4 56 7.2 N 15 22 8 12 1005.7 1005.6 0.0
25/02:00pm 35.1 39.7 25.9 59 6.6 N 13 22 7 12 1006.1 1006.0 0.0
25/01:30pm 33.9 38.0 24.5 58 6.6 ENE 11 13 6 7 1006.6 1006.5 0.0
25/01:00pm 33.6 37.3 23.9 57 6.8 ENE 11 17 6 9 1007.0 1006.9 0.0
25/12:30pm 34.4 38.7 24.3 55 7.1 S 9 13 5 7 1007.2 1007.1 0.0
25/12:00pm 34.0 37.6 23.7 55 7.2 SSW 11 15 6 8 1007.6 1007.5 0.0
25/11:30am 32.9 35.4 23.2 56 6.7 WNW 15 20 8 11 1007.9 1007.8 0.0
25/11:00am 32.4 35.2 23.6 59 6.1 WNW 15 24 8 13 1008.2 1008.1 0.0
25/10:30am 32.3 35.9 23.8 61 5.9 WNW 11 17 6 9 1008.3 1008.2 0.0
25/10:00am 31.7 33.7 23.0 60 6.0 WNW 17 24 9 13 1008.4 1008.3 0.0
25/09:30am 31.4 33.6 23.2 61 5.7 WNW 17 24 9 13 1008.5 1008.4 0.0
25/09:00am 30.3 31.8 22.7 64 5.2 WNW 19 26 10 14 1008.5 1008.4 0.0
25/08:30am 30.3 32.7 24.2 70 4.3 WNW 19 24 10 13 1008.5 1008.4 0.0
25/08:00am 29.2 31.9 23.4 71 4.0 WNW 15 20 8 11 1008.0 1007.9 0.0
25/07:30am 28.8 30.8 23.0 71 4.0 WNW 17 22 9 12 1007.7 1007.6 0.0
25/07:00am 28.5 31.1 22.7 71 3.9 WNW 13 20 7 11 1007.4 1007.3 0.0
25/06:30am 28.5 30.2 23.0 72 3.8 W 19 24 10 13 1006.7 1006.6 0.0
25/06:00am 28.8 30.6 23.5 73 3.7 W 20 26 11 14 1006.1 1006.0 0.0
25/05:30am 29.1 30.6 23.1 70 4.1 WNW 20 28 11 15 1006.0 1005.9 0.0
25/05:00am 29.4 31.0 23.8 72 3.9 WNW 22 28 12 15 1005.5 1005.4 0.0
25/04:30am 29.4 31.9 24.5 75 3.4 NW 19 24 10 13 1005.4 1005.3 0.0
25/04:00am 29.1 32.6 24.2 75 3.4 NW 13 19 7 10 1005.1 1005.0 0.0
25/03:30am 29.4 32.8 24.0 72 3.8 NW 13 20 7 11 1005.1 1005.0 0.0
25/03:00am 29.8 32.7 25.1 76 3.3 NW 19 28 10 15 1005.4 1005.3 0.0
25/02:30am 30.0 35.1 26.2 80 2.7 NW 11 15 6 8 1005.3 1005.2 0.0
25/02:00am 29.9 34.3 26.3 81 2.6 NW 15 20 8 11 1005.4 1005.3 0.0
25/01:30am 29.9 34.6 26.7 83 2.3 NNW 15 20 8 11 1005.6 1005.5 0.0
25/01:00am 29.8 34.6 26.8 84 2.2 NNW 15 24 8 13 1006.2 1006.1 0.0
25/12:30am 29.8 34.4 26.6 83 2.3 NNW 15 20 8 11 1006.4 1006.3 0.0
25/12:00am 29.7 34.8 26.7 84 2.2 NNW 13 20 7 11 1006.6 1006.5 0.0
 
Date/Time
CST
Temp
°C
App
Temp
°C
Dew
Point
Rel
Hum
%
Delta-T
°C
Wind Press
QNH
hPa
Press
MSL
hPa
Rain
since 9 am
mm
Dir
 
Spd
km/h
Gust
km/h
Spd
kts
Gust
kts
24/11:30pm 29.5 34.6 26.1 82 2.4 NNW 11 15 6 8 1007.1 1007.0 0.0
24/11:00pm 29.9 34.3 26.3 81 2.6 N 15 20 8 11 1007.2 1007.1 0.0
24/10:30pm 29.9 35.1 26.3 81 2.6 N 11 15 6 8 1007.8 1007.7 0.0
24/10:00pm 30.0 35.4 26.6 82 2.4 N 11 15 6 8 1007.1 1007.0 0.0
24/09:30pm 30.1 34.1 26.7 82 2.4 NNE 19 28 10 15 1006.7 1006.6 0.0
24/09:00pm 30.2 33.9 26.6 81 2.6 N 20 30 11 16 1006.6 1006.5 0.0
24/08:30pm 30.3 33.3 26.7 81 2.6 NNE 24 32 13 17 1006.3 1006.2 0.0
24/08:00pm 30.2 32.8 26.6 81 2.6 NNE 26 32 14 17 1005.4 1005.3 0.0
24/07:30pm 30.2 33.1 26.6 81 2.6 NE 24 32 13 17 1005.4 1005.3 0.0
24/07:00pm 30.5 33.1 26.7 80 2.7 NE 26 32 14 17 1005.1 1005.0 0.0
24/06:30pm 30.9 34.0 26.8 79 3.0 NE 24 32 13 17 1004.1 1004.0 0.0
24/06:00pm 31.7 34.8 26.9 76 3.5 NNE 24 30 13 16 1003.4 1003.3 0.0
24/05:30pm 32.6 36.3 26.6 70 4.3 NNE 20 28 11 15 1003.2 1003.1 0.0
24/05:00pm 33.5 37.2 25.7 63 5.6 NNE 17 22 9 12 1003.1 1003.0 0.0
24/04:30pm 34.3 38.1 26.5 64 5.6 N 19 26 10 14 1003.2 1003.1 0.0
24/04:00pm 35.4 40.3 27.0 62 6.1 NNE 15 22 8 12 1002.9 1002.8 0.0
24/03:30pm 35.4 39.9 26.4 59 6.5 NNE 15 20 8 11 1003.4 1003.3 0.0
24/03:00pm 35.3 39.2 26.1 59 6.6 NNE 17 24 9 13 1003.3 1003.2 0.0
24/02:30pm 35.5 39.3 26.5 59 6.5 NNE 19 24 10 13 1003.5 1003.4 0.0
24/02:00pm 35.4 40.5 26.1 58 6.7 ENE 11 17 6 9 1003.8 1003.7 0.0
24/01:30pm 35.3 40.0 24.9 55 7.4 S 9 11 5 6 1003.9 1003.8 0.0
24/01:00pm 35.7 40.2 25.2 54 7.5 NW 11 19 6 10 1004.2 1004.1 0.0
24/12:30pm 35.0 38.9 26.1 60 6.4 N 17 22 9 12 1004.6 1004.5 0.0
24/12:00pm 34.0 37.1 25.7 62 5.9 N 20 26 11 14 1005.0 1004.9 0.0
24/11:30am 34.8 39.2 26.2 61 6.2 NNW 15 22 8 12 1005.4 1005.3 0.0
24/11:00am 33.9 38.8 26.4 65 5.4 NW 13 19 7 10 1005.6 1005.5 0.0
24/10:30am 33.1 37.5 25.6 64 5.4 NW 13 20 7 11 1006.0 1005.9 0.0
24/10:00am 33.4 37.4 25.6 63 5.6 NW 15 26 8 14 1006.0 1005.9 0.0
24/09:30am 32.0 36.1 25.8 69 4.4 WNW 15 22 8 12 1006.2 1006.1 0.0
24/09:00am 31.6 35.3 25.7 71 4.2 WNW 17 24 9 13 1005.8 1005.7 0.0
24/08:30am 30.7 35.0 26.6 79 2.9 WNW 17 22 9 12 1005.7 1005.6 0.0
24/08:00am 30.2 34.5 26.1 79 2.9 WNW 15 20 8 11 1005.5 1005.4 0.0
24/07:30am 29.7 34.7 26.5 83 2.3 WNW 13 17 7 9 1004.9 1004.8 0.0
24/07:00am 28.9 34.5 26.3 86 1.9 NW 9 11 5 6 1004.6 1004.5 0.0
24/06:30am 28.4 34.1 26.4 89 1.4 WNW 9 11 5 6 1004.1 1004.0 0.0
24/06:00am 28.2 33.2 26.0 88 1.6 NW 11 13 6 7 1003.5 1003.4 0.0
24/05:30am 28.2 33.3 25.6 86 1.8 NW 9 11 5 6 1003.3 1003.2 0.0
24/05:00am 28.6 34.2 25.8 85 2.0 WNW 7 11 4 6 1003.1 1003.0 0.0
24/04:30am 28.7 33.9 25.7 84 2.1 NW 9 15 5 8 1003.0 1002.9 0.0
24/04:00am 28.9 33.1 25.9 84 2.1 WNW 15 20 8 11 1003.1 1003.0 0.0
24/03:30am 28.9 33.0 25.7 83 2.3 NW 15 19 8 10 1003.2 1003.1 0.0
24/03:00am 28.9 33.0 25.7 83 2.3 NW 15 19 8 10 1003.0 1002.9 0.0
24/02:30am 28.8 33.2 25.6 83 2.3 NW 13 20 7 11 1003.0 1002.9 0.0
24/02:00am 28.8 33.0 25.4 82 2.4 NW 13 19 7 10 1003.1 1003.0 0.0
24/01:30am 28.9 32.7 24.7 78 2.9 NW 13 17 7 9 1003.3 1003.2 0.0
24/01:00am 29.0 33.1 25.2 80 2.7 NNW 13 19 7 10 1003.4 1003.3 0.0
24/12:30am 28.9 33.1 25.3 81 2.5 NNW 13 19 7 10 1003.7 1003.6 0.0
24/12:00am 29.0 33.4 25.6 82 2.4 NNW 13 17 7 9 1003.7 1003.6 0.0
 
Date/Time
CST
Temp
°C
App
Temp
°C
Dew
Point
Rel
Hum
%
Delta-T
°C
Wind Press
QNH
hPa
Press
MSL
hPa
Rain
since 9 am
mm
Dir
 
Spd
km/h
Gust
km/h
Spd
kts
Gust
kts
23/11:30pm 29.2 33.3 25.2 79 2.8 NNW 13 17 7 9 1004.1 1004.0 0.0
23/11:00pm 29.2 32.8 24.3 75 3.4 NNW 13 20 7 11 1004.4 1004.3 0.0
23/10:30pm 29.3 32.8 24.2 74 3.6 NNW 13 19 7 10 1004.6 1004.5 0.0
23/10:00pm 29.5 32.8 23.9 72 3.9 NNW 13 17 7 9 1004.7 1004.6 0.0
23/09:30pm 29.7 32.6 23.9 71 4.0 N 15 19 8 10 1004.2 1004.1 0.0
23/09:00pm 29.9 32.7 23.6 69 4.4 N 15 20 8 11 1003.9 1003.8 0.0
23/08:30pm 29.8 32.6 23.7 70 4.2 N 15 22 8 12 1003.5 1003.4 0.0
23/08:00pm 29.7 32.4 24.1 72 3.9 N 17 24 9 13 1003.4 1003.3 0.0
23/07:30pm 29.9 32.9 25.2 76 3.3 N 19 24 10 13 1003.0 1002.9 0.0
23/07:00pm 30.3 33.8 24.9 73 3.8 N 15 20 8 11 1002.8 1002.7 0.0
23/06:30pm 30.8 33.5 24.2 68 4.6 N 17 24 9 13 1002.5 1002.4 0.0
23/06:00pm 31.6 34.7 24.2 65 5.2 N 15 20 8 11 1002.1 1002.0 0.0
23/05:30pm 32.5 35.9 24.0 61 6.0 NNW 13 19 7 10 1001.6 1001.5 0.0
23/05:00pm 33.2 36.4 24.9 61 5.9 NNW 17 24 9 13 1001.3 1001.2 0.0
23/04:30pm 33.7 37.1 24.0 57 6.8 N 13 19 7 10 1001.3 1001.2 0.0
23/04:00pm 33.9 37.4 24.2 57 6.8 N 13 17 7 9 1001.1 1001.0 0.0
23/03:30pm 34.4 38.5 25.2 58 6.6 N 13 20 7 11 1001.2 1001.1 0.0
23/03:00pm 33.9 37.6 24.5 58 6.6 NNE 13 20 7 11 1001.6 1001.5 0.0
23/02:30pm 33.8 37.5 25.2 60 6.1 NE 15 20 8 11 1002.1 1002.0 0.0
23/02:00pm 34.5 38.3 24.7 56 6.9 N 13 19 7 10 1002.4 1002.3 0.0
23/01:30pm 33.7 37.7 23.7 56 7.0 WNW 9 15 5 8 1002.5 1002.4 0.0
23/01:00pm 33.6 36.6 22.7 53 7.5 WSW 11 13 6 7 1002.8 1002.7 0.0
23/12:30pm 34.2 37.5 22.6 50 8.0 SW 9 15 5 8 1003.1 1003.0 0.0
23/12:00pm 33.4 36.6 23.7 56 6.8 SSW 13 15 7 8 1003.3 1003.2 0.0
23/11:30am 32.7 37.1 24.5 62 5.8 SSW 9 13 5 7 1003.8 1003.7 0.0
23/11:00am 32.2 35.9 23.2 59 6.2 WSW 9 11 5 6 1004.4 1004.3 0.0
23/10:30am 30.7 34.9 24.1 68 4.6 W 9 13 5 7 1004.3 1004.2 0.0
23/10:00am 29.9 33.5 23.8 70 4.2 WSW 11 13 6 7 1004.1 1004.0 0.0
23/09:30am 29.6 32.9 23.8 71 4.0 WSW 13 15 7 8 1004.0 1003.9 0.0
23/09:00am 29.4 33.0 24.3 74 3.6 WSW 13 17 7 9 1003.9 1003.8 2.2
23/08:30am 28.4 31.8 24.0 77 3.1 WSW 13 17 7 9 1003.9 1003.8 2.2
23/08:00am 27.8 30.0 24.0 80 2.6 WSW 19 22 10 12 1003.5 1003.4 2.2
23/07:30am 26.9 29.6 24.2 85 1.9 W 17 20 9 11 1003.6 1003.5 2.2
23/07:00am 26.4 29.5 24.1 87 1.6 WSW 15 20 8 11 1003.4 1003.3 2.2
23/06:30am 26.2 28.9 24.2 89 1.4 W 17 19 9 10 1003.0 1002.9 2.2
23/06:00am 26.3 28.7 24.2 88 1.5 W 19 22 10 12 1002.5 1002.4 2.2
23/05:30am 26.6 28.4 24.3 87 1.6 W 22 26 12 14 1002.1 1002.0 2.2
23/05:00am 27.3 29.8 25.3 89 1.4 WSW 22 28 12 15 1001.8 1001.7 2.2
23/04:30am 27.3 30.2 25.1 88 1.5 WSW 19 26 10 14 1001.5 1001.4 2.2
23/04:00am 27.2 30.2 24.6 86 1.8 W 17 22 9 12 1002.0 1001.9 2.2
23/03:30am 27.1 29.8 24.2 84 2.0 WNW 17 20 9 11 1002.6 1002.5 2.2
23/03:00am 27.1 29.6 23.8 82 2.3 WNW 17 22 9 12 1003.1 1003.0 2.2
23/02:30am 27.0 29.5 24.5 86 1.7 NW 19 24 10 13 1003.6 1003.5 2.2
23/02:00am 27.1 30.0 24.4 85 1.9 WNW 17 20 9 11 1003.8 1003.7 2.2
23/01:30am 26.8 29.0 24.3 86 1.7 WNW 20 26 11 14 1004.0 1003.9 2.2
23/01:00am 27.1 29.6 24.4 85 1.9 NW 19 26 10 14 1004.3 1004.2 2.2
23/12:30am 27.2 29.2 24.5 85 1.9 NW 22 28 12 15 1004.0 1003.9 2.2
23/12:00am 26.9 29.1 24.2 85 1.9 NW 20 28 11 15 1004.1 1004.0 2.2
 
Date/Time
CST
Temp
°C
App
Temp
°C
Dew
Point
Rel
Hum
%
Delta-T
°C
Wind Press
QNH
hPa
Press
MSL
hPa
Rain
since 9 am
mm
Dir
 
Spd
km/h
Gust
km/h
Spd
kts
Gust
kts
22/11:30pm 27.3 29.2 23.7 81 2.5 NNW 20 28 11 15 1004.4 1004.3 2.2
22/11:00pm 27.3 30.3 23.3 79 2.7 NNW 13 19 7 10 1004.7 1004.6 2.2
22/10:30pm 27.8 31.1 23.8 79 2.8 N 13 19 7 10 1004.3 1004.2 2.2
22/10:00pm 28.7 33.5 26.3 87 1.7 NNW 13 20 7 11 1004.6 1004.5 2.2

Other Formats:

Comma delimited format used in spreadsheet applications
http://www.bom.gov.au/fwo/IDD60801/IDD60801.94248.axf

JavaScript Object Notation format (JSON) in row-major order
http://www.bom.gov.au/fwo/IDD60801/IDD60801.94248.json